sensor_id;sensor_type;location;lat;lon;timestamp;temperature;humidity
40534;DHT22;26233;51.894;10.192;2023-08-07T00:02:12;18.40;56.30
40534;DHT22;26233;51.894;10.192;2023-08-07T00:04:39;18.40;56.30
40534;DHT22;26233;51.894;10.192;2023-08-07T00:07:06;18.40;56.40
40534;DHT22;26233;51.894;10.192;2023-08-07T00:09:35;18.40;56.50
40534;DHT22;26233;51.894;10.192;2023-08-07T00:12:02;18.40;56.50
40534;DHT22;26233;51.894;10.192;2023-08-07T00:14:30;18.40;56.50
40534;DHT22;26233;51.894;10.192;2023-08-07T00:16:57;18.40;56.50
40534;DHT22;26233;51.894;10.192;2023-08-07T00:19:24;18.40;56.40
40534;DHT22;26233;51.894;10.192;2023-08-07T00:21:51;18.30;56.40
40534;DHT22;26233;51.894;10.192;2023-08-07T00:24:18;18.30;57.00
40534;DHT22;26233;51.894;10.192;2023-08-07T00:26:47;18.30;56.50
40534;DHT22;26233;51.894;10.192;2023-08-07T00:29:14;18.30;56.50
40534;DHT22;26233;51.894;10.192;2023-08-07T00:31:41;18.30;56.60
40534;DHT22;26233;51.894;10.192;2023-08-07T00:34:08;18.30;56.70
40534;DHT22;26233;51.894;10.192;2023-08-07T00:36:36;18.20;56.60
40534;DHT22;26233;51.894;10.192;2023-08-07T00:39:03;18.20;56.60
40534;DHT22;26233;51.894;10.192;2023-08-07T00:41:30;18.30;57.40
40534;DHT22;26233;51.894;10.192;2023-08-07T00:43:59;18.20;56.80
40534;DHT22;26233;51.894;10.192;2023-08-07T00:46:26;18.30;56.80
40534;DHT22;26233;51.894;10.192;2023-08-07T00:48:54;18.20;56.70
40534;DHT22;26233;51.894;10.192;2023-08-07T00:51:21;18.20;56.80
40534;DHT22;26233;51.894;10.192;2023-08-07T00:53:50;18.20;56.80
40534;DHT22;26233;51.894;10.192;2023-08-07T00:56:18;18.20;56.60
40534;DHT22;26233;51.894;10.192;2023-08-07T00:58:45;18.20;56.60
40534;DHT22;26233;51.894;10.192;2023-08-07T01:01:14;18.10;56.50
40534;DHT22;26233;51.894;10.192;2023-08-07T01:03:41;18.10;56.60
40534;DHT22;26233;51.894;10.192;2023-08-07T01:06:08;18.00;56.60
40534;DHT22;26233;51.894;10.192;2023-08-07T01:08:36;18.00;56.80
40534;DHT22;26233;51.894;10.192;2023-08-07T01:11:16;18.00;57.00
40534;DHT22;26233;51.894;10.192;2023-08-07T01:13:54;18.00;57.10
40534;DHT22;26233;51.894;10.192;2023-08-07T01:16:31;18.00;57.20
40534;DHT22;26233;51.894;10.192;2023-08-07T01:19:04;18.00;57.00
40534;DHT22;26233;51.894;10.192;2023-08-07T01:21:35;18.10;57.10
40534;DHT22;26233;51.894;10.192;2023-08-07T01:24:05;17.90;57.00
40534;DHT22;26233;51.894;10.192;2023-08-07T01:26:33;17.90;57.20
40534;DHT22;26233;51.894;10.192;2023-08-07T01:29:06;17.90;57.20
40534;DHT22;26233;51.894;10.192;2023-08-07T01:31:40;18.00;57.40
40534;DHT22;26233;51.894;10.192;2023-08-07T01:34:10;18.00;57.40
40534;DHT22;26233;51.894;10.192;2023-08-07T01:36:39;18.00;57.30
40534;DHT22;26233;51.894;10.192;2023-08-07T01:39:08;18.00;57.30
40534;DHT22;26233;51.894;10.192;2023-08-07T01:41:36;18.00;57.20
40534;DHT22;26233;51.894;10.192;2023-08-07T01:44:03;18.00;57.20
40534;DHT22;26233;51.894;10.192;2023-08-07T01:46:31;18.00;57.20
40534;DHT22;26233;51.894;10.192;2023-08-07T01:48:58;18.00;57.20
40534;DHT22;26233;51.894;10.192;2023-08-07T01:51:25;18.00;57.20
40534;DHT22;26233;51.894;10.192;2023-08-07T01:53:53;18.00;57.20
40534;DHT22;26233;51.894;10.192;2023-08-07T01:56:21;18.00;57.30
40534;DHT22;26233;51.894;10.192;2023-08-07T01:58:48;18.00;57.30
40534;DHT22;26233;51.894;10.192;2023-08-07T02:01:15;18.00;57.20
40534;DHT22;26233;51.894;10.192;2023-08-07T02:03:42;18.00;57.20
40534;DHT22;26233;51.894;10.192;2023-08-07T02:06:09;18.00;57.20
40534;DHT22;26233;51.894;10.192;2023-08-07T02:08:36;18.00;57.20
40534;DHT22;26233;51.894;10.192;2023-08-07T02:11:03;18.00;57.20
40534;DHT22;26233;51.894;10.192;2023-08-07T02:13:32;18.00;57.40
40534;DHT22;26233;51.894;10.192;2023-08-07T02:15:59;18.00;57.30
40534;DHT22;26233;51.894;10.192;2023-08-07T02:18:26;18.10;57.40
40534;DHT22;26233;51.894;10.192;2023-08-07T02:20:53;18.00;57.30
40534;DHT22;26233;51.894;10.192;2023-08-07T02:23:20;18.00;57.20
40534;DHT22;26233;51.894;10.192;2023-08-07T02:25:48;18.00;57.20
40534;DHT22;26233;51.894;10.192;2023-08-07T02:28:15;17.90;57.10
40534;DHT22;26233;51.894;10.192;2023-08-07T02:30:46;17.90;57.10
40534;DHT22;26233;51.894;10.192;2023-08-07T02:33:14;17.90;57.20
40534;DHT22;26233;51.894;10.192;2023-08-07T02:35:41;17.90;57.10
40534;DHT22;26233;51.894;10.192;2023-08-07T02:38:09;17.80;57.00
40534;DHT22;26233;51.894;10.192;2023-08-07T02:40:37;17.80;57.00
40534;DHT22;26233;51.894;10.192;2023-08-07T02:43:04;17.70;57.00
40534;DHT22;26233;51.894;10.192;2023-08-07T02:45:31;17.70;57.70
40534;DHT22;26233;51.894;10.192;2023-08-07T02:48:02;17.70;57.20
40534;DHT22;26233;51.894;10.192;2023-08-07T02:50:30;17.70;57.20
40534;DHT22;26233;51.894;10.192;2023-08-07T02:52:58;17.60;57.20
40534;DHT22;26233;51.894;10.192;2023-08-07T02:55:25;17.60;57.50
40534;DHT22;26233;51.894;10.192;2023-08-07T02:57:52;17.60;57.30
40534;DHT22;26233;51.894;10.192;2023-08-07T03:00:19;17.60;57.90
40534;DHT22;26233;51.894;10.192;2023-08-07T03:02:47;17.70;58.10
40534;DHT22;26233;51.894;10.192;2023-08-07T03:05:16;17.60;57.40
40534;DHT22;26233;51.894;10.192;2023-08-07T03:07:43;17.60;57.40
40534;DHT22;26233;51.894;10.192;2023-08-07T03:10:10;17.70;57.50
40534;DHT22;26233;51.894;10.192;2023-08-07T03:12:37;17.60;57.50
40534;DHT22;26233;51.894;10.192;2023-08-07T03:15:05;17.60;57.50
40534;DHT22;26233;51.894;10.192;2023-08-07T03:17:33;17.60;57.50
40534;DHT22;26233;51.894;10.192;2023-08-07T03:20:01;17.60;57.40
40534;DHT22;26233;51.894;10.192;2023-08-07T03:22:30;17.60;57.40
40534;DHT22;26233;51.894;10.192;2023-08-07T03:24:57;17.60;57.40
40534;DHT22;26233;51.894;10.192;2023-08-07T03:27:24;17.60;57.50
40534;DHT22;26233;51.894;10.192;2023-08-07T03:29:52;17.60;57.50
40534;DHT22;26233;51.894;10.192;2023-08-07T03:32:19;17.60;57.50
40534;DHT22;26233;51.894;10.192;2023-08-07T03:34:46;17.60;57.50
40534;DHT22;26233;51.894;10.192;2023-08-07T03:37:13;17.60;57.50
40534;DHT22;26233;51.894;10.192;2023-08-07T03:39:42;17.50;57.40
40534;DHT22;26233;51.894;10.192;2023-08-07T03:42:13;17.50;57.40
40534;DHT22;26233;51.894;10.192;2023-08-07T03:44:41;17.50;57.40
40534;DHT22;26233;51.894;10.192;2023-08-07T03:47:08;17.50;57.50
40534;DHT22;26233;51.894;10.192;2023-08-07T03:49:35;17.50;57.40
40534;DHT22;26233;51.894;10.192;2023-08-07T03:52:03;17.50;57.50
40534;DHT22;26233;51.894;10.192;2023-08-07T03:54:30;17.50;57.50
40534;DHT22;26233;51.894;10.192;2023-08-07T03:56:59;17.50;57.50
40534;DHT22;26233;51.894;10.192;2023-08-07T03:59:26;17.50;57.50
40534;DHT22;26233;51.894;10.192;2023-08-07T04:01:53;17.50;57.50
40534;DHT22;26233;51.894;10.192;2023-08-07T04:04:20;17.50;58.10
40534;DHT22;26233;51.894;10.192;2023-08-07T04:06:47;17.50;57.60
40534;DHT22;26233;51.894;10.192;2023-08-07T04:09:15;17.50;57.60
40534;DHT22;26233;51.894;10.192;2023-08-07T04:11:42;17.50;57.70
40534;DHT22;26233;51.894;10.192;2023-08-07T04:14:11;17.50;57.70
40534;DHT22;26233;51.894;10.192;2023-08-07T04:16:38;17.50;57.60
40534;DHT22;26233;51.894;10.192;2023-08-07T04:19:05;17.50;57.60
40534;DHT22;26233;51.894;10.192;2023-08-07T04:21:33;17.50;57.60
40534;DHT22;26233;51.894;10.192;2023-08-07T04:24:02;17.50;57.60
40534;DHT22;26233;51.894;10.192;2023-08-07T04:26:33;17.40;57.50
40534;DHT22;26233;51.894;10.192;2023-08-07T04:29:00;17.40;57.60
40534;DHT22;26233;51.894;10.192;2023-08-07T04:31:29;17.50;57.70
40534;DHT22;26233;51.894;10.192;2023-08-07T04:33:57;17.50;57.80
40534;DHT22;26233;51.894;10.192;2023-08-07T04:36:24;17.50;57.70
40534;DHT22;26233;51.894;10.192;2023-08-07T04:38:51;17.50;57.70
40534;DHT22;26233;51.894;10.192;2023-08-07T04:41:21;17.50;57.70
40534;DHT22;26233;51.894;10.192;2023-08-07T04:43:48;17.40;57.60
40534;DHT22;26233;51.894;10.192;2023-08-07T04:46:15;17.30;57.50
40534;DHT22;26233;51.894;10.192;2023-08-07T04:48:44;17.50;57.70
40534;DHT22;26233;51.894;10.192;2023-08-07T04:51:11;17.50;57.70
40534;DHT22;26233;51.894;10.192;2023-08-07T04:53:38;17.40;57.70
40534;DHT22;26233;51.894;10.192;2023-08-07T04:56:06;17.50;57.80
40534;DHT22;26233;51.894;10.192;2023-08-07T04:58:33;17.50;57.80
40534;DHT22;26233;51.894;10.192;2023-08-07T05:01:00;17.50;57.80
40534;DHT22;26233;51.894;10.192;2023-08-07T05:03:27;17.50;57.70
40534;DHT22;26233;51.894;10.192;2023-08-07T05:06:01;17.50;57.70
40534;DHT22;26233;51.894;10.192;2023-08-07T05:08:28;17.50;57.80
40534;DHT22;26233;51.894;10.192;2023-08-07T05:10:55;17.50;57.80
40534;DHT22;26233;51.894;10.192;2023-08-07T05:13:23;17.50;57.80
40534;DHT22;26233;51.894;10.192;2023-08-07T05:15:50;17.50;57.80
40534;DHT22;26233;51.894;10.192;2023-08-07T05:18:18;17.50;57.80
40534;DHT22;26233;51.894;10.192;2023-08-07T05:20:45;17.50;57.90
40534;DHT22;26233;51.894;10.192;2023-08-07T05:23:14;17.50;57.80
40534;DHT22;26233;51.894;10.192;2023-08-07T05:25:41;17.50;57.80
40534;DHT22;26233;51.894;10.192;2023-08-07T05:28:08;17.50;57.80
40534;DHT22;26233;51.894;10.192;2023-08-07T05:30:35;17.60;57.90
40534;DHT22;26233;51.894;10.192;2023-08-07T05:33:02;17.50;57.80
40534;DHT22;26233;51.894;10.192;2023-08-07T05:35:30;17.50;57.80
40534;DHT22;26233;51.894;10.192;2023-08-07T05:37:57;17.50;57.80
40534;DHT22;26233;51.894;10.192;2023-08-07T05:40:25;17.50;57.90
40534;DHT22;26233;51.894;10.192;2023-08-07T05:42:52;17.50;58.00
40534;DHT22;26233;51.894;10.192;2023-08-07T05:45:20;17.50;58.00
40534;DHT22;26233;51.894;10.192;2023-08-07T05:47:47;17.50;58.50
40534;DHT22;26233;51.894;10.192;2023-08-07T05:50:14;17.50;57.90
40534;DHT22;26233;51.894;10.192;2023-08-07T05:52:41;17.50;58.00
40534;DHT22;26233;51.894;10.192;2023-08-07T05:55:08;17.50;58.00
40534;DHT22;26233;51.894;10.192;2023-08-07T05:57:37;17.50;58.00
40534;DHT22;26233;51.894;10.192;2023-08-07T06:00:05;17.50;58.00
40534;DHT22;26233;51.894;10.192;2023-08-07T06:02:39;17.50;58.00
40534;DHT22;26233;51.894;10.192;2023-08-07T06:05:07;17.50;58.10
40534;DHT22;26233;51.894;10.192;2023-08-07T06:07:36;17.50;58.10
40534;DHT22;26233;51.894;10.192;2023-08-07T06:10:04;17.50;58.10
40534;DHT22;26233;51.894;10.192;2023-08-07T06:12:32;17.50;58.10
40534;DHT22;26233;51.894;10.192;2023-08-07T06:15:00;17.50;58.10
40534;DHT22;26233;51.894;10.192;2023-08-07T06:17:28;17.60;58.20
40534;DHT22;26233;51.894;10.192;2023-08-07T06:19:55;17.60;58.30
40534;DHT22;26233;51.894;10.192;2023-08-07T06:22:22;17.60;58.30
40534;DHT22;26233;51.894;10.192;2023-08-07T06:24:49;17.60;58.40
40534;DHT22;26233;51.894;10.192;2023-08-07T06:27:16;17.70;58.50
40534;DHT22;26233;51.894;10.192;2023-08-07T06:29:43;17.70;58.50
40534;DHT22;26233;51.894;10.192;2023-08-07T06:32:12;17.70;58.50
40534;DHT22;26233;51.894;10.192;2023-08-07T06:34:39;17.80;58.50
40534;DHT22;26233;51.894;10.192;2023-08-07T06:37:06;17.80;58.50
40534;DHT22;26233;51.894;10.192;2023-08-07T06:39:33;17.80;58.40
40534;DHT22;26233;51.894;10.192;2023-08-07T06:42:01;17.90;58.40
40534;DHT22;26233;51.894;10.192;2023-08-07T06:44:29;17.90;58.40
40534;DHT22;26233;51.894;10.192;2023-08-07T06:46:57;17.90;58.30
40534;DHT22;26233;51.894;10.192;2023-08-07T06:49:25;17.90;58.40
40534;DHT22;26233;51.894;10.192;2023-08-07T06:51:52;17.90;58.60
40534;DHT22;26233;51.894;10.192;2023-08-07T06:54:19;17.90;58.30
40534;DHT22;26233;51.894;10.192;2023-08-07T06:56:46;17.90;58.40
40534;DHT22;26233;51.894;10.192;2023-08-07T06:59:13;17.90;58.40
40534;DHT22;26233;51.894;10.192;2023-08-07T07:01:41;17.90;58.30
40534;DHT22;26233;51.894;10.192;2023-08-07T07:04:08;18.00;58.40
40534;DHT22;26233;51.894;10.192;2023-08-07T07:06:37;17.90;58.30
40534;DHT22;26233;51.894;10.192;2023-08-07T07:09:04;17.90;58.20
40534;DHT22;26233;51.894;10.192;2023-08-07T07:11:31;17.90;58.20
40534;DHT22;26233;51.894;10.192;2023-08-07T07:13:58;18.00;58.40
40534;DHT22;26233;51.894;10.192;2023-08-07T07:16:25;18.00;58.30
40534;DHT22;26233;51.894;10.192;2023-08-07T07:18:53;18.00;58.30
40534;DHT22;26233;51.894;10.192;2023-08-07T07:21:21;18.00;58.20
40534;DHT22;26233;51.894;10.192;2023-08-07T07:23:50;17.90;58.10
40534;DHT22;26233;51.894;10.192;2023-08-07T07:26:17;17.90;58.10
40534;DHT22;26233;51.894;10.192;2023-08-07T07:28:44;17.90;58.20
40534;DHT22;26233;51.894;10.192;2023-08-07T07:31:11;17.90;58.20
40534;DHT22;26233;51.894;10.192;2023-08-07T07:33:38;17.70;58.70
40534;DHT22;26233;51.894;10.192;2023-08-07T07:36:06;17.90;58.40
40534;DHT22;26233;51.894;10.192;2023-08-07T07:38:34;17.90;58.50
40534;DHT22;26233;51.894;10.192;2023-08-07T07:41:02;17.90;58.70
40534;DHT22;26233;51.894;10.192;2023-08-07T07:43:29;18.00;58.80
40534;DHT22;26233;51.894;10.192;2023-08-07T07:45:57;18.00;59.00
40534;DHT22;26233;51.894;10.192;2023-08-07T07:48:24;18.10;59.10
40534;DHT22;26233;51.894;10.192;2023-08-07T07:50:51;18.10;59.00
40534;DHT22;26233;51.894;10.192;2023-08-07T07:53:24;18.20;59.00
40534;DHT22;26233;51.894;10.192;2023-08-07T07:55:52;18.20;58.80
40534;DHT22;26233;51.894;10.192;2023-08-07T07:58:21;18.30;58.90
40534;DHT22;26233;51.894;10.192;2023-08-07T08:00:48;18.30;58.90
40534;DHT22;26233;51.894;10.192;2023-08-07T08:03:17;18.40;58.90
40534;DHT22;26233;51.894;10.192;2023-08-07T08:05:48;18.40;59.00
40534;DHT22;26233;51.894;10.192;2023-08-07T08:08:16;18.50;59.10
40534;DHT22;26233;51.894;10.192;2023-08-07T08:10:43;18.50;59.10
40534;DHT22;26233;51.894;10.192;2023-08-07T08:13:12;18.60;59.30
40534;DHT22;26233;51.894;10.192;2023-08-07T08:15:41;18.70;59.30
40534;DHT22;26233;51.894;10.192;2023-08-07T08:18:08;18.80;59.20
40534;DHT22;26233;51.894;10.192;2023-08-07T08:20:35;18.80;58.90
40534;DHT22;26233;51.894;10.192;2023-08-07T08:23:03;18.90;59.00
40534;DHT22;26233;51.894;10.192;2023-08-07T08:25:30;18.90;58.70
40534;DHT22;26233;51.894;10.192;2023-08-07T08:27:58;19.00;58.50
40534;DHT22;26233;51.894;10.192;2023-08-07T08:30:25;19.00;58.00
40534;DHT22;26233;51.894;10.192;2023-08-07T08:32:54;18.90;57.80
40534;DHT22;26233;51.894;10.192;2023-08-07T08:35:21;18.90;57.70
40534;DHT22;26233;51.894;10.192;2023-08-07T08:37:49;18.80;57.50
40534;DHT22;26233;51.894;10.192;2023-08-07T08:40:16;18.70;57.50
40534;DHT22;26233;51.894;10.192;2023-08-07T08:42:45;18.70;57.70
40534;DHT22;26233;51.894;10.192;2023-08-07T08:45:14;18.60;57.80
40534;DHT22;26233;51.894;10.192;2023-08-07T08:47:42;18.60;58.10
40534;DHT22;26233;51.894;10.192;2023-08-07T08:50:13;18.60;58.20
40534;DHT22;26233;51.894;10.192;2023-08-07T08:52:42;18.70;59.20
40534;DHT22;26233;51.894;10.192;2023-08-07T08:55:11;18.70;58.70
40534;DHT22;26233;51.894;10.192;2023-08-07T08:57:39;18.70;58.60
40534;DHT22;26233;51.894;10.192;2023-08-07T09:00:08;18.70;58.50
40534;DHT22;26233;51.894;10.192;2023-08-07T09:02:44;18.80;58.50
40534;DHT22;26233;51.894;10.192;2023-08-07T09:05:14;18.80;58.50
40534;DHT22;26233;51.894;10.192;2023-08-07T09:07:42;18.80;58.30
40534;DHT22;26233;51.894;10.192;2023-08-07T09:10:12;18.80;58.30
40534;DHT22;26233;51.894;10.192;2023-08-07T09:12:42;18.80;58.20
40534;DHT22;26233;51.894;10.192;2023-08-07T09:15:11;18.80;58.10
40534;DHT22;26233;51.894;10.192;2023-08-07T09:17:43;18.80;58.10
40534;DHT22;26233;51.894;10.192;2023-08-07T09:20:13;18.70;57.90
40534;DHT22;26233;51.894;10.192;2023-08-07T09:22:41;18.70;57.90
40534;DHT22;26233;51.894;10.192;2023-08-07T09:25:09;18.70;57.80
40534;DHT22;26233;51.894;10.192;2023-08-07T09:27:37;18.60;57.80
40534;DHT22;26233;51.894;10.192;2023-08-07T09:30:06;18.60;57.90
40534;DHT22;26233;51.894;10.192;2023-08-07T09:32:35;18.60;57.90
40534;DHT22;26233;51.894;10.192;2023-08-07T09:35:05;18.60;58.00
40534;DHT22;26233;51.894;10.192;2023-08-07T09:37:36;18.60;58.10
40534;DHT22;26233;51.894;10.192;2023-08-07T09:40:05;18.60;58.10
40534;DHT22;26233;51.894;10.192;2023-08-07T09:42:36;18.70;58.30
40534;DHT22;26233;51.894;10.192;2023-08-07T09:45:19;18.70;58.40
40534;DHT22;26233;51.894;10.192;2023-08-07T09:47:47;18.70;58.00
40534;DHT22;26233;51.894;10.192;2023-08-07T09:50:24;18.70;58.30
40534;DHT22;26233;51.894;10.192;2023-08-07T09:52:54;18.80;58.30
40534;DHT22;26233;51.894;10.192;2023-08-07T09:55:21;18.80;58.50
40534;DHT22;26233;51.894;10.192;2023-08-07T09:57:49;18.80;58.20
40534;DHT22;26233;51.894;10.192;2023-08-07T10:00:16;18.80;58.20
40534;DHT22;26233;51.894;10.192;2023-08-07T10:02:46;18.80;58.10
40534;DHT22;26233;51.894;10.192;2023-08-07T10:05:14;18.80;58.00
40534;DHT22;26233;51.894;10.192;2023-08-07T10:07:42;18.80;57.90
40534;DHT22;26233;51.894;10.192;2023-08-07T10:10:11;18.80;57.90
40534;DHT22;26233;51.894;10.192;2023-08-07T10:12:38;18.70;57.80
40534;DHT22;26233;51.894;10.192;2023-08-07T10:15:06;18.70;57.90
40534;DHT22;26233;51.894;10.192;2023-08-07T10:17:34;18.70;57.90
40534;DHT22;26233;51.894;10.192;2023-08-07T10:20:01;18.70;57.90
40534;DHT22;26233;51.894;10.192;2023-08-07T10:22:30;18.60;58.00
40534;DHT22;26233;51.894;10.192;2023-08-07T10:25:01;18.60;58.00
40534;DHT22;26233;51.894;10.192;2023-08-07T10:27:34;18.60;57.90
40534;DHT22;26233;51.894;10.192;2023-08-07T10:30:07;18.50;58.00
40534;DHT22;26233;51.894;10.192;2023-08-07T10:32:36;18.50;58.00
40534;DHT22;26233;51.894;10.192;2023-08-07T10:35:04;18.50;58.20
40534;DHT22;26233;51.894;10.192;2023-08-07T10:37:37;18.50;58.60
40534;DHT22;26233;51.894;10.192;2023-08-07T10:40:07;18.50;58.90
40534;DHT22;26233;51.894;10.192;2023-08-07T10:43:16;18.60;59.20
40534;DHT22;26233;51.894;10.192;2023-08-07T10:45:44;18.70;59.10
40534;DHT22;26233;51.894;10.192;2023-08-07T10:48:12;18.70;59.40
40534;DHT22;26233;51.894;10.192;2023-08-07T10:50:56;18.90;59.80
40534;DHT22;26233;51.894;10.192;2023-08-07T10:53:29;19.00;59.70
40534;DHT22;26233;51.894;10.192;2023-08-07T10:55:57;19.30;60.40
40534;DHT22;26233;51.894;10.192;2023-08-07T10:58:30;19.50;60.10
40534;DHT22;26233;51.894;10.192;2023-08-07T11:01:22;19.50;59.10
40534;DHT22;26233;51.894;10.192;2023-08-07T11:03:52;19.60;58.30
40534;DHT22;26233;51.894;10.192;2023-08-07T11:06:24;19.70;58.40
40534;DHT22;26233;51.894;10.192;2023-08-07T11:08:53;19.60;57.80
40534;DHT22;26233;51.894;10.192;2023-08-07T11:11:20;19.60;57.70
40534;DHT22;26233;51.894;10.192;2023-08-07T11:13:49;19.50;57.40
40534;DHT22;26233;51.894;10.192;2023-08-07T11:16:17;19.50;57.50
40534;DHT22;26233;51.894;10.192;2023-08-07T11:18:47;19.40;57.70
40534;DHT22;26233;51.894;10.192;2023-08-07T11:21:14;19.30;58.00
40534;DHT22;26233;51.894;10.192;2023-08-07T11:23:42;19.30;58.10
40534;DHT22;26233;51.894;10.192;2023-08-07T11:26:10;19.30;58.20
40534;DHT22;26233;51.894;10.192;2023-08-07T11:28:37;19.30;58.20
40534;DHT22;26233;51.894;10.192;2023-08-07T11:31:06;19.30;58.20
40534;DHT22;26233;51.894;10.192;2023-08-07T11:33:33;19.30;58.10
40534;DHT22;26233;51.894;10.192;2023-08-07T11:36:03;19.40;58.20
40534;DHT22;26233;51.894;10.192;2023-08-07T11:38:38;19.30;58.00
40534;DHT22;26233;51.894;10.192;2023-08-07T11:41:09;19.40;57.90
40534;DHT22;26233;51.894;10.192;2023-08-07T11:43:37;19.30;57.70
40534;DHT22;26233;51.894;10.192;2023-08-07T11:46:07;19.30;57.50
40534;DHT22;26233;51.894;10.192;2023-08-07T11:48:37;19.20;57.00
40534;DHT22;26233;51.894;10.192;2023-08-07T11:51:05;19.00;56.70
40534;DHT22;26233;51.894;10.192;2023-08-07T11:53:34;19.00;56.90
40534;DHT22;26233;51.894;10.192;2023-08-07T11:56:05;18.90;56.80
40534;DHT22;26233;51.894;10.192;2023-08-07T11:58:36;18.80;56.90
40534;DHT22;26233;51.894;10.192;2023-08-07T12:01:06;18.70;57.00
40534;DHT22;26233;51.894;10.192;2023-08-07T12:03:37;18.60;57.10
40534;DHT22;26233;51.894;10.192;2023-08-07T12:06:07;18.50;57.00
40534;DHT22;26233;51.894;10.192;2023-08-07T12:08:35;18.40;57.10
40534;DHT22;26233;51.894;10.192;2023-08-07T12:11:04;18.40;57.20
40534;DHT22;26233;51.894;10.192;2023-08-07T12:13:32;18.40;57.60
40534;DHT22;26233;51.894;10.192;2023-08-07T12:16:01;18.40;58.00
40534;DHT22;26233;51.894;10.192;2023-08-07T12:18:31;18.50;58.30
40534;DHT22;26233;51.894;10.192;2023-08-07T12:21:00;18.50;58.30
40534;DHT22;26233;51.894;10.192;2023-08-07T12:23:28;18.70;58.40
40534;DHT22;26233;51.894;10.192;2023-08-07T12:25:55;18.70;58.30
40534;DHT22;26233;51.894;10.192;2023-08-07T12:28:22;18.80;58.40
40534;DHT22;26233;51.894;10.192;2023-08-07T12:30:50;18.90;58.40
40534;DHT22;26233;51.894;10.192;2023-08-07T12:33:18;18.90;58.10
40534;DHT22;26233;51.894;10.192;2023-08-07T12:35:47;19.00;58.00
40534;DHT22;26233;51.894;10.192;2023-08-07T12:38:14;19.00;57.70
40534;DHT22;26233;51.894;10.192;2023-08-07T12:40:43;19.10;57.50
40534;DHT22;26233;51.894;10.192;2023-08-07T12:43:10;19.10;57.30
40534;DHT22;26233;51.894;10.192;2023-08-07T12:45:37;19.00;57.50
40534;DHT22;26233;51.894;10.192;2023-08-07T12:48:04;19.00;57.20
40534;DHT22;26233;51.894;10.192;2023-08-07T12:50:33;18.90;57.30
40534;DHT22;26233;51.894;10.192;2023-08-07T12:53:01;18.90;57.70
40534;DHT22;26233;51.894;10.192;2023-08-07T12:55:29;19.00;58.80
40534;DHT22;26233;51.894;10.192;2023-08-07T12:57:56;19.30;59.80
40534;DHT22;26233;51.894;10.192;2023-08-07T13:00:23;19.60;60.70
40534;DHT22;26233;51.894;10.192;2023-08-07T13:02:52;19.90;60.40
40534;DHT22;26233;51.894;10.192;2023-08-07T13:05:21;20.10;59.00
40534;DHT22;26233;51.894;10.192;2023-08-07T13:07:49;20.20;58.00
40534;DHT22;26233;51.894;10.192;2023-08-07T13:10:20;20.30;57.30
40534;DHT22;26233;51.894;10.192;2023-08-07T13:12:48;20.30;56.70
40534;DHT22;26233;51.894;10.192;2023-08-07T13:15:16;20.30;56.60
40534;DHT22;26233;51.894;10.192;2023-08-07T13:17:44;20.30;56.60
40534;DHT22;26233;51.894;10.192;2023-08-07T13:20:13;20.40;56.50
40534;DHT22;26233;51.894;10.192;2023-08-07T13:22:41;20.40;56.50
40534;DHT22;26233;51.894;10.192;2023-08-07T13:25:10;20.50;56.70
40534;DHT22;26233;51.894;10.192;2023-08-07T13:27:39;20.50;56.60
40534;DHT22;26233;51.894;10.192;2023-08-07T13:30:07;20.60;56.80
40534;DHT22;26233;51.894;10.192;2023-08-07T13:32:35;20.70;56.70
40534;DHT22;26233;51.894;10.192;2023-08-07T13:35:03;20.70;56.20
40534;DHT22;26233;51.894;10.192;2023-08-07T13:37:31;20.80;55.90
40534;DHT22;26233;51.894;10.192;2023-08-07T13:39:59;20.90;55.30
40534;DHT22;26233;51.894;10.192;2023-08-07T13:42:26;20.80;54.80
40534;DHT22;26233;51.894;10.192;2023-08-07T13:44:55;20.70;54.60
40534;DHT22;26233;51.894;10.192;2023-08-07T13:47:23;20.70;54.60
40534;DHT22;26233;51.894;10.192;2023-08-07T13:49:51;20.80;55.30
40534;DHT22;26233;51.894;10.192;2023-08-07T13:52:19;20.80;55.00
40534;DHT22;26233;51.894;10.192;2023-08-07T13:54:46;20.90;54.50
40534;DHT22;26233;51.894;10.192;2023-08-07T13:57:14;21.00;54.60
40534;DHT22;26233;51.894;10.192;2023-08-07T13:59:41;21.00;53.80
40534;DHT22;26233;51.894;10.192;2023-08-07T14:02:09;21.00;53.50
40534;DHT22;26233;51.894;10.192;2023-08-07T14:04:36;21.00;52.80
40534;DHT22;26233;51.894;10.192;2023-08-07T14:07:04;21.00;53.00
40534;DHT22;26233;51.894;10.192;2023-08-07T14:09:32;21.00;52.90
40534;DHT22;26233;51.894;10.192;2023-08-07T14:11:59;20.90;52.60
40534;DHT22;26233;51.894;10.192;2023-08-07T14:14:26;20.80;52.30
40534;DHT22;26233;51.894;10.192;2023-08-07T14:16:53;20.70;51.70
40534;DHT22;26233;51.894;10.192;2023-08-07T14:19:24;20.50;51.30
40534;DHT22;26233;51.894;10.192;2023-08-07T14:21:51;20.40;51.50
40534;DHT22;26233;51.894;10.192;2023-08-07T14:24:18;20.30;51.60
40534;DHT22;26233;51.894;10.192;2023-08-07T14:26:45;20.20;51.70
40534;DHT22;26233;51.894;10.192;2023-08-07T14:29:13;20.10;52.00
40534;DHT22;26233;51.894;10.192;2023-08-07T14:31:40;20.10;52.30
40534;DHT22;26233;51.894;10.192;2023-08-07T14:34:07;20.10;52.10
40534;DHT22;26233;51.894;10.192;2023-08-07T14:36:36;20.20;52.40
40534;DHT22;26233;51.894;10.192;2023-08-07T14:39:04;20.20;52.40
40534;DHT22;26233;51.894;10.192;2023-08-07T14:41:31;20.20;52.50
40534;DHT22;26233;51.894;10.192;2023-08-07T14:43:58;20.30;52.40
40534;DHT22;26233;51.894;10.192;2023-08-07T14:46:26;20.30;52.30
40534;DHT22;26233;51.894;10.192;2023-08-07T14:48:53;20.30;52.10
40534;DHT22;26233;51.894;10.192;2023-08-07T14:51:21;20.30;52.00
40534;DHT22;26233;51.894;10.192;2023-08-07T14:53:49;20.40;52.20
40534;DHT22;26233;51.894;10.192;2023-08-07T14:56:16;20.40;52.10
40534;DHT22;26233;51.894;10.192;2023-08-07T14:58:44;20.50;52.10
40534;DHT22;26233;51.894;10.192;2023-08-07T15:01:11;20.50;51.90
40534;DHT22;26233;51.894;10.192;2023-08-07T15:03:38;20.60;51.70
40534;DHT22;26233;51.894;10.192;2023-08-07T15:06:05;20.60;51.20
40534;DHT22;26233;51.894;10.192;2023-08-07T15:08:32;20.50;50.70
40534;DHT22;26233;51.894;10.192;2023-08-07T15:11:01;20.50;50.60
40534;DHT22;26233;51.894;10.192;2023-08-07T15:13:28;20.50;50.80
40534;DHT22;26233;51.894;10.192;2023-08-07T15:15:55;20.40;50.80
40534;DHT22;26233;51.894;10.192;2023-08-07T15:18:22;20.40;50.70
40534;DHT22;26233;51.894;10.192;2023-08-07T15:20:50;20.40;50.60
40534;DHT22;26233;51.894;10.192;2023-08-07T15:23:17;20.40;50.70